Wylie, Texas
Current Conditions -  °F | °C
As of 10:55 PM on Saturday 22 Nov 2014 (Local Time) from KF46 Reporting Station
Haze Haze  
Wind Chill: 59°   Ceiling: Unl
Heat Index: 59°   Visibility: 5mi
Dew Point: 59°   Wind: 8mph
Humidity: 100%   Direction: 170°S
Pressure: 29.74"   Gusts: 16mph
Location:  33.02°N, 96.51°W
Report Text: KF46 230455Z AUTO 17007G14KT 5SM BR SCT004 15/15 A2974 RMK AO2 T01520152
Loading
Personal Weather Stations






























Interactive Weather Map New forecast layout! Learn more

10-Day Weather Forecast

Advertisements
Track Severe Weather on mobile